createdAt,value
2022-10-20T00:00:15.455Z,95.00
2022-10-20T00:01:15.395Z,95.00
2022-10-20T00:02:15.432Z,95.10
2022-10-20T00:03:15.375Z,95.25
2022-10-20T00:04:15.335Z,95.36
2022-10-20T00:05:15.321Z,95.67
2022-10-20T00:06:15.398Z,96.18
2022-10-20T00:07:15.302Z,96.39
2022-10-20T00:08:15.307Z,96.49
2022-10-20T00:09:15.326Z,96.70
2022-10-20T00:10:15.254Z,96.80
2022-10-20T00:11:15.337Z,97.01
2022-10-20T00:12:15.264Z,97.01
2022-10-20T00:13:15.257Z,96.91
2022-10-20T00:15:36.676Z,96.96
2022-10-20T00:16:36.695Z,96.75
2022-10-20T00:17:36.666Z,96.75
2022-10-20T00:18:36.678Z,96.75
2022-10-20T00:19:36.616Z,96.75
2022-10-20T00:20:37.616Z,96.50
2022-10-20T00:21:36.637Z,96.15
2022-10-20T00:22:36.769Z,95.64
2022-10-20T00:23:36.618Z,95.12
2022-10-20T00:24:36.616Z,94.56
2022-10-20T00:25:36.536Z,94.26
2022-10-20T00:26:36.566Z,93.64
2022-10-20T00:27:36.540Z,93.64
2022-10-20T00:28:36.496Z,93.33
2022-10-20T00:29:36.487Z,93.29
2022-10-20T00:30:36.476Z,92.77
2022-10-20T00:31:36.498Z,92.67
2022-10-20T00:32:36.841Z,92.36
2022-10-20T00:33:36.443Z,92.30
2022-10-20T00:34:36.490Z,92.61
2022-10-20T00:35:36.418Z,92.50
2022-10-20T00:36:36.409Z,92.71
2022-10-20T00:37:36.398Z,92.65
2022-10-20T00:38:36.409Z,92.96
2022-10-20T00:39:36.368Z,93.37
2022-10-20T00:40:36.419Z,93.48
2022-10-20T00:41:36.359Z,93.73
2022-10-20T00:42:36.526Z,94.03
2022-10-20T00:43:36.348Z,94.03
2022-10-20T00:44:36.349Z,94.13
2022-10-20T00:45:36.357Z,94.24
2022-10-20T00:46:36.283Z,94.40
2022-10-20T00:47:36.416Z,94.40
2022-10-20T00:48:36.271Z,94.36
2022-10-20T00:49:36.280Z,93.84
2022-10-20T00:50:36.289Z,93.33
2022-10-20T00:51:36.219Z,93.02
2022-10-20T00:52:36.636Z,92.71
2022-10-20T00:53:36.200Z,92.50
2022-10-20T00:55:46.401Z,92.50
2022-10-20T00:56:46.385Z,92.50
2022-10-20T00:57:46.471Z,92.40
2022-10-20T00:58:46.371Z,92.44
2022-10-20T00:59:46.383Z,92.55
2022-10-20T01:00:48.361Z,92.86
2022-10-20T01:01:46.362Z,92.96
2022-10-20T01:02:46.399Z,93.37
2022-10-20T01:03:46.311Z,93.48
2022-10-20T01:04:46.322Z,93.52
2022-10-20T01:05:47.342Z,93.73
2022-10-20T01:06:46.272Z,93.73
2022-10-20T01:07:46.355Z,94.08
2022-10-20T01:08:46.299Z,94.28
2022-10-20T01:09:46.252Z,94.38
2022-10-20T01:10:46.251Z,94.70
2022-10-20T01:11:46.304Z,94.80
2022-10-20T01:12:46.173Z,94.84
2022-10-20T01:13:46.173Z,94.95
2022-10-20T01:14:46.190Z,95.15
2022-10-20T01:15:46.198Z,95.15
2022-10-20T01:16:46.228Z,95.36
2022-10-20T01:17:46.115Z,95.50
2022-10-20T01:18:46.116Z,95.71
2022-10-20T01:19:46.113Z,95.81
2022-10-20T01:20:46.122Z,95.92
2022-10-20T01:21:46.155Z,96.02
2022-10-20T01:22:46.134Z,96.12
2022-10-20T01:24:56.266Z,96.23
2022-10-20T01:25:56.287Z,96.02
2022-10-20T01:26:56.328Z,96.02
2022-10-20T01:27:56.308Z,95.92
2022-10-20T01:28:56.308Z,95.92
2022-10-20T01:29:56.218Z,95.96
2022-10-20T01:30:56.188Z,95.96
2022-10-20T01:31:56.285Z,95.86
2022-10-20T01:32:56.157Z,95.96
2022-10-20T01:33:56.243Z,96.06
2022-10-20T01:34:56.142Z,96.17
2022-10-20T01:35:56.160Z,96.17
2022-10-20T01:36:56.198Z,96.21
2022-10-20T01:37:56.448Z,96.31
2022-10-20T01:38:56.190Z,96.31
2022-10-20T01:39:56.078Z,96.31
2022-10-20T01:40:56.090Z,96.31
2022-10-20T01:41:56.131Z,96.31
2022-10-20T01:42:56.034Z,96.42
2022-10-20T01:43:56.120Z,96.42
2022-10-20T01:44:56.019Z,96.52
2022-10-20T01:47:06.227Z,96.47
2022-10-20T01:48:06.274Z,96.56
2022-10-20T01:49:06.192Z,96.56
2022-10-20T01:50:06.178Z,96.67
2022-10-20T01:51:06.194Z,96.77
2022-10-20T01:52:06.234Z,96.67
2022-10-20T01:53:06.134Z,96.77
2022-10-20T01:54:06.215Z,96.77
2022-10-20T01:55:06.224Z,96.77
2022-10-20T01:56:06.116Z,96.88
2022-10-20T01:57:06.096Z,96.88
2022-10-20T01:58:06.136Z,96.98
2022-10-20T01:59:06.065Z,96.98
2022-10-20T02:00:06.154Z,97.02
2022-10-20T02:01:06.058Z,97.02
2022-10-20T02:02:06.101Z,97.02
2022-10-20T02:03:06.077Z,97.13
2022-10-20T02:04:06.004Z,97.23
2022-10-20T02:05:05.975Z,97.33
2022-10-20T02:06:06.005Z,97.33
2022-10-20T02:07:06.026Z,97.33
2022-10-20T02:08:07.025Z,97.33
2022-10-20T02:09:05.936Z,97.23
2022-10-20T02:10:06.037Z,97.23
2022-10-20T02:11:05.928Z,97.13
2022-10-20T02:12:05.966Z,97.13
2022-10-20T02:13:05.936Z,97.13
2022-10-20T02:14:05.868Z,97.07
2022-10-20T02:15:05.851Z,97.07
2022-10-20T02:16:05.858Z,97.07
2022-10-20T02:17:05.898Z,97.07
2022-10-20T02:18:05.867Z,97.07
2022-10-20T02:19:05.868Z,97.17
2022-10-20T02:20:05.892Z,97.07
2022-10-20T02:21:05.787Z,97.07
2022-10-20T02:22:05.830Z,97.17
2022-10-20T02:23:05.748Z,97.17
2022-10-20T02:24:05.749Z,97.17
2022-10-20T02:25:05.828Z,97.28
2022-10-20T02:26:05.817Z,97.28
2022-10-20T02:27:05.755Z,97.28
2022-10-20T02:28:05.691Z,97.38
2022-10-20T02:29:05.756Z,97.49
2022-10-20T02:30:05.755Z,97.49
2022-10-20T02:31:05.647Z,97.49
2022-10-20T02:32:05.648Z,97.59
2022-10-20T02:33:05.659Z,97.59
2022-10-20T02:34:05.615Z,97.59
2022-10-20T02:35:06.780Z,97.49
2022-10-20T02:36:05.689Z,97.49
2022-10-20T02:37:05.643Z,97.49
2022-10-20T02:38:05.568Z,97.49
2022-10-20T02:40:15.808Z,97.59
2022-10-20T02:41:40.038Z,97.69
2022-10-20T02:42:15.789Z,97.69
2022-10-20T02:43:15.770Z,97.79
2022-10-20T02:45:25.985Z,97.79
2022-10-20T02:46:30.256Z,97.69
2022-10-20T02:47:25.963Z,97.59
2022-10-20T02:48:34.472Z,97.49
2022-10-20T02:49:33.440Z,97.42
2022-10-20T02:50:25.920Z,97.53
2022-10-20T02:51:34.599Z,97.53
2022-10-20T02:52:25.894Z,97.53
2022-10-20T02:53:34.394Z,97.42
2022-10-20T02:54:33.387Z,97.53
2022-10-20T02:55:33.352Z,97.53
2022-10-20T02:56:28.900Z,97.74
2022-10-20T02:57:34.802Z,97.74
2022-10-20T02:58:34.334Z,97.84
2022-10-20T02:59:25.802Z,97.94
2022-10-20T03:01:35.064Z,98.15
2022-10-20T03:02:42.456Z,98.15
2022-10-20T03:03:42.462Z,98.25
2022-10-20T03:04:42.436Z,98.35
2022-10-20T03:05:42.427Z,98.46
2022-10-20T03:06:35.014Z,98.46
2022-10-20T03:07:35.422Z,98.35
2022-10-20T03:08:34.894Z,98.46
2022-10-20T03:09:34.876Z,98.46
2022-10-20T03:10:34.906Z,98.46
2022-10-20T03:11:34.943Z,98.46
2022-10-20T03:12:34.932Z,98.46
2022-10-20T03:13:34.827Z,98.46
2022-10-20T03:14:35.847Z,98.35
2022-10-20T03:15:34.849Z,98.35
2022-10-20T03:16:34.786Z,98.25
2022-10-20T03:17:36.232Z,98.25
2022-10-20T03:18:34.864Z,98.25
2022-10-20T03:19:34.766Z,98.15
2022-10-20T03:20:34.766Z,98.15
2022-10-20T03:21:34.809Z,98.05
2022-10-20T03:22:34.788Z,98.05
2022-10-20T03:23:35.714Z,97.94
2022-10-20T03:24:34.700Z,97.94
2022-10-20T03:25:34.727Z,97.94
2022-10-20T03:26:34.737Z,97.84
2022-10-20T03:27:35.166Z,97.84
2022-10-20T03:28:34.627Z,97.74
2022-10-20T03:29:34.622Z,97.84
2022-10-20T03:30:34.638Z,97.74
2022-10-20T03:31:34.794Z,97.74
2022-10-20T03:32:34.824Z,97.63
2022-10-20T03:33:34.647Z,97.63
2022-10-20T03:34:35.607Z,97.63
2022-10-20T03:35:34.562Z,97.53
2022-10-20T03:36:34.607Z,97.47
2022-10-20T03:37:34.588Z,97.36
2022-10-20T03:38:34.589Z,97.36
2022-10-20T03:39:34.705Z,97.36
2022-10-20T03:40:34.495Z,97.26
2022-10-20T03:41:34.561Z,97.26
2022-10-20T03:42:34.908Z,97.26
2022-10-20T03:43:34.454Z,97.26
2022-10-20T03:44:34.459Z,97.36
2022-10-20T03:45:34.430Z,97.36
2022-10-20T03:46:34.427Z,97.47
2022-10-20T03:47:34.404Z,97.57
2022-10-20T03:48:34.380Z,97.88
2022-10-20T03:49:34.462Z,97.88
2022-10-20T04:02:49.001Z,97.79
2022-10-20T04:03:48.971Z,97.79
2022-10-20T04:04:48.971Z,97.59
2022-10-20T04:05:48.952Z,97.44
2022-10-20T04:06:48.962Z,97.23
2022-10-20T04:07:48.932Z,97.33
2022-10-20T04:08:49.001Z,97.19
2022-10-20T04:09:48.902Z,97.19
2022-10-20T04:10:48.903Z,96.77
2022-10-20T04:11:49.911Z,96.47
2022-10-20T04:12:48.872Z,96.42
2022-10-20T04:13:48.865Z,96.37
2022-10-20T04:14:48.843Z,95.92
2022-10-20T04:15:48.832Z,95.30
2022-10-20T04:16:48.833Z,94.43
2022-10-20T04:17:49.793Z,93.66
2022-10-20T04:18:48.802Z,92.94
2022-10-20T04:19:48.782Z,92.33
2022-10-20T04:20:49.763Z,91.81
2022-10-20T04:21:49.762Z,91.64
2022-10-20T04:22:48.763Z,91.89
2022-10-20T04:23:48.723Z,92.10
2022-10-20T04:24:48.724Z,92.35
2022-10-20T04:25:48.716Z,92.66
2022-10-20T04:27:48.681Z,93.78
2022-10-20T04:28:48.667Z,94.29
2022-10-20T04:29:48.653Z,94.71
2022-10-20T04:30:48.647Z,94.96
2022-10-20T04:31:49.278Z,95.27
2022-10-20T04:32:48.614Z,95.68
2022-10-20T04:33:48.614Z,95.89
2022-10-20T04:34:48.595Z,96.09
2022-10-20T04:36:48.565Z,96.51
2022-10-20T04:37:48.559Z,96.92
2022-10-20T04:38:48.535Z,97.19
2022-10-20T04:39:48.518Z,97.14
2022-10-20T04:40:48.506Z,96.62
2022-10-20T04:41:48.510Z,96.11
2022-10-20T04:42:48.505Z,95.59
2022-10-20T04:43:48.481Z,95.28
2022-10-20T04:44:48.547Z,94.97
2022-10-20T04:45:48.446Z,94.92
2022-10-20T04:46:48.449Z,95.02
2022-10-20T04:47:48.415Z,95.02
2022-10-20T04:48:48.417Z,94.71
2022-10-20T04:49:48.388Z,94.54
2022-10-20T04:50:48.398Z,94.54
2022-10-20T04:51:48.383Z,94.75
2022-10-20T04:52:48.356Z,94.90
2022-10-20T04:53:49.337Z,95.10
2022-10-20T04:54:48.327Z,95.73
2022-10-20T04:55:48.328Z,95.83
2022-10-20T04:56:48.315Z,95.94
2022-10-20T04:57:48.288Z,95.94
2022-10-20T04:58:49.279Z,95.98
2022-10-20T04:59:48.275Z,96.08
2022-10-20T05:00:48.258Z,96.19
2022-10-20T05:01:48.428Z,96.19
2022-10-20T05:02:48.229Z,96.49
2022-10-20T05:03:48.218Z,96.76
2022-10-20T05:04:48.197Z,96.76
2022-10-20T05:05:48.190Z,96.98
2022-10-20T05:06:48.192Z,96.56
2022-10-20T05:07:48.158Z,95.96
2022-10-20T05:08:48.196Z,94.93
2022-10-20T05:09:48.139Z,93.65
2022-10-20T05:10:48.129Z,92.86
2022-10-20T05:11:48.120Z,92.97
2022-10-20T05:12:48.102Z,92.76
2022-10-20T05:13:48.086Z,92.80
2022-10-20T05:14:48.090Z,93.32
2022-10-20T05:15:48.060Z,93.01
2022-10-20T05:16:48.070Z,93.57
2022-10-20T05:17:48.039Z,94.09
2022-10-20T05:18:48.020Z,94.46
2022-10-20T05:19:48.010Z,94.52
2022-10-20T05:21:10.225Z,94.06
2022-10-20T05:21:48.992Z,93.65
2022-10-20T05:22:47.984Z,92.99
2022-10-20T05:23:47.969Z,92.57
2022-10-20T05:24:47.961Z,92.02
2022-10-20T05:25:47.935Z,91.24
2022-10-20T05:26:47.934Z,91.44
2022-10-20T05:27:47.915Z,91.44
2022-10-20T05:28:47.919Z,91.30
2022-10-20T05:29:47.912Z,91.13
2022-10-20T05:30:47.872Z,91.64
2022-10-20T05:31:47.872Z,91.48
2022-10-20T05:32:47.844Z,91.79
2022-10-20T05:33:47.834Z,92.10
2022-10-20T05:34:48.811Z,92.21
2022-10-20T05:35:47.802Z,92.41
2022-10-20T05:36:47.804Z,92.41
2022-10-20T05:37:47.780Z,92.72
2022-10-20T05:38:47.773Z,92.72
2022-10-20T05:40:47.753Z,92.46
2022-10-20T05:41:47.732Z,92.46
2022-10-20T05:42:47.714Z,92.60
2022-10-20T05:43:47.702Z,93.01
2022-10-20T05:44:48.684Z,93.43
2022-10-20T05:45:47.673Z,93.63
2022-10-20T05:46:47.673Z,93.63
2022-10-20T05:47:47.642Z,93.88
2022-10-20T05:48:47.655Z,94.19
2022-10-20T05:49:47.626Z,94.19
2022-10-20T05:50:47.630Z,94.40
2022-10-20T05:51:47.606Z,94.60
2022-10-20T05:52:47.583Z,94.65
2022-10-20T05:53:47.571Z,94.65
2022-10-20T05:54:47.571Z,94.65
2022-10-20T05:55:47.555Z,94.90
2022-10-20T05:56:47.547Z,95.31
2022-10-20T05:57:47.525Z,95.68
2022-10-20T05:58:47.533Z,95.99
2022-10-20T05:59:47.505Z,95.95
2022-10-20T06:00:47.485Z,95.84
2022-10-20T06:01:47.562Z,95.43
2022-10-20T06:02:47.470Z,95.12
2022-10-20T06:03:47.454Z,95.07
2022-10-20T06:04:47.438Z,94.62
2022-10-20T06:05:47.426Z,93.90
2022-10-20T06:06:47.418Z,93.69
2022-10-20T06:07:47.394Z,93.28
2022-10-20T06:08:47.423Z,93.22
2022-10-20T06:09:47.374Z,93.22
2022-10-20T06:10:47.356Z,93.47
2022-10-20T06:11:47.370Z,93.47
2022-10-20T06:12:47.338Z,93.78
2022-10-20T06:13:50.107Z,94.19
2022-10-20T06:14:48.306Z,94.60
2022-10-20T06:15:47.296Z,94.81
2022-10-20T06:16:47.358Z,95.12
2022-10-20T06:17:47.277Z,95.02
2022-10-20T06:18:47.269Z,95.02
2022-10-20T06:19:47.247Z,94.97
2022-10-20T06:20:48.231Z,94.97
2022-10-20T06:21:48.934Z,94.72
2022-10-20T06:22:47.208Z,94.21
2022-10-20T06:23:47.198Z,94.10
2022-10-20T06:24:47.178Z,94.10
2022-10-20T06:25:48.157Z,93.90
2022-10-20T06:26:47.161Z,93.54
2022-10-20T06:27:47.128Z,93.44
2022-10-20T06:28:47.128Z,93.59
2022-10-20T06:29:47.118Z,93.69
2022-10-20T06:30:48.096Z,93.69
2022-10-20T06:31:47.155Z,93.90
2022-10-20T06:32:47.078Z,94.10
2022-10-20T06:33:47.060Z,94.21
2022-10-20T06:34:47.078Z,94.52
2022-10-20T06:35:47.037Z,94.72
2022-10-20T06:36:47.080Z,94.57
2022-10-20T06:37:47.029Z,94.37
2022-10-20T06:38:46.998Z,94.17
2022-10-20T06:39:46.990Z,93.98
2022-10-20T06:40:46.983Z,93.11
2022-10-20T06:41:46.970Z,92.18
2022-10-20T06:42:46.993Z,91.52
2022-10-20T06:43:46.931Z,91.31
2022-10-20T06:44:46.920Z,91.00
2022-10-20T06:45:46.900Z,91.05
2022-10-20T06:46:46.891Z,91.36
2022-10-20T06:47:46.912Z,91.66
2022-10-20T06:48:46.880Z,91.56
2022-10-20T06:49:46.850Z,91.56
2022-10-20T06:50:46.850Z,91.72
2022-10-20T06:51:46.840Z,91.72
2022-10-20T06:52:46.812Z,91.52
2022-10-20T06:53:46.985Z,91.21
2022-10-20T06:54:46.805Z,91.11
2022-10-20T06:55:46.772Z,91.42
2022-10-20T06:56:46.772Z,91.42
2022-10-20T06:57:46.753Z,91.42
2022-10-20T06:58:46.739Z,91.52
2022-10-20T06:59:46.738Z,91.87
2022-10-20T07:00:46.723Z,92.18
2022-10-20T07:01:46.746Z,92.59
2022-10-20T07:02:46.702Z,93.01
2022-10-20T07:03:46.675Z,93.21
2022-10-20T07:04:46.676Z,93.52
2022-10-20T07:05:46.657Z,93.62
2022-10-20T07:06:46.642Z,93.62
2022-10-20T07:07:46.633Z,93.79
2022-10-20T07:08:46.727Z,93.58
2022-10-20T07:09:46.593Z,93.33
2022-10-20T07:10:46.591Z,93.02
2022-10-20T07:11:46.619Z,92.77
2022-10-20T07:12:46.557Z,92.25
2022-10-20T07:13:46.555Z,91.91
2022-10-20T07:14:46.528Z,91.70
2022-10-20T07:15:46.526Z,91.70
2022-10-20T07:16:46.534Z,91.55
2022-10-20T07:17:46.504Z,91.00
2022-10-20T07:18:46.498Z,90.59
2022-10-20T07:19:46.473Z,90.03
2022-10-20T07:20:46.470Z,89.37
2022-10-20T07:21:46.444Z,88.86
2022-10-20T07:22:46.426Z,88.66
2022-10-20T07:23:46.446Z,88.62
2022-10-20T07:24:46.415Z,88.51
2022-10-20T07:25:46.386Z,88.51
2022-10-20T07:26:46.395Z,88.82
2022-10-20T07:27:46.368Z,89.23
2022-10-20T07:28:46.346Z,89.03
2022-10-20T07:29:46.347Z,89.03
2022-10-20T07:30:46.336Z,88.98
2022-10-20T07:31:46.318Z,88.98
2022-10-20T07:32:46.307Z,88.88
2022-10-20T07:34:00.925Z,88.57
2022-10-20T07:34:47.317Z,88.68
2022-10-20T07:35:46.266Z,88.53
2022-10-20T07:36:46.255Z,88.43
2022-10-20T07:37:46.235Z,88.23
2022-10-20T07:38:46.233Z,87.92
2022-10-20T07:39:46.198Z,87.92
2022-10-20T07:40:46.197Z,87.77
2022-10-20T07:41:46.188Z,87.67
2022-10-20T07:42:46.168Z,87.57
2022-10-20T07:43:46.166Z,87.47
2022-10-20T07:44:46.157Z,87.22
2022-10-20T07:45:46.121Z,87.22
2022-10-20T07:46:46.135Z,86.81
2022-10-20T07:47:47.675Z,86.81
2022-10-20T07:48:46.098Z,86.46
2022-10-20T07:49:46.084Z,86.12
2022-10-20T07:50:46.059Z,85.81
2022-10-20T07:51:46.058Z,85.50
2022-10-20T07:52:46.050Z,85.16
2022-10-20T07:53:46.033Z,84.95
2022-10-20T07:54:46.020Z,84.65
2022-10-20T07:55:45.996Z,84.41
2022-10-20T07:56:45.999Z,84.09
2022-10-20T07:57:45.970Z,84.50
2022-10-20T07:58:45.959Z,84.61
2022-10-20T07:59:45.948Z,84.81
2022-10-20T08:00:45.936Z,84.71
2022-10-20T08:01:45.991Z,84.09
2022-10-20T08:02:45.923Z,83.89
2022-10-20T08:03:45.901Z,83.75
2022-10-20T08:04:45.983Z,83.75
2022-10-20T08:05:45.889Z,83.14
2022-10-20T08:06:45.898Z,83.34
2022-10-20T08:07:45.843Z,83.54
2022-10-20T08:08:45.878Z,83.44
2022-10-20T08:10:45.806Z,83.34
2022-10-20T08:11:45.791Z,83.75
2022-10-20T08:12:45.781Z,83.54
2022-10-20T08:13:45.768Z,83.14
2022-10-20T08:14:45.821Z,82.59
2022-10-20T08:15:45.799Z,82.14
2022-10-20T08:16:49.513Z,81.63
2022-10-20T08:17:45.721Z,81.29
2022-10-20T08:18:48.661Z,81.29
2022-10-20T08:19:50.715Z,80.88
2022-10-20T08:20:45.707Z,81.25
2022-10-20T08:21:45.673Z,80.64
2022-10-20T08:22:46.646Z,79.68
2022-10-20T08:23:45.644Z,78.97
2022-10-20T08:24:45.671Z,78.63
2022-10-20T08:25:45.615Z,78.02
2022-10-20T08:26:46.614Z,77.91
2022-10-20T08:27:45.675Z,77.87
2022-10-20T08:28:45.583Z,77.37
2022-10-20T08:29:50.951Z,77.47
2022-10-20T08:30:46.546Z,77.37
2022-10-20T08:31:46.540Z,76.76
2022-10-20T08:32:45.514Z,78.08
2022-10-20T08:33:50.063Z,77.67
2022-10-20T08:34:46.486Z,77.57
2022-10-20T08:35:45.486Z,77.87
2022-10-20T08:36:45.495Z,78.49
2022-10-20T08:37:45.457Z,78.19
2022-10-20T08:38:45.428Z,77.57
2022-10-20T08:39:45.427Z,77.84
2022-10-20T08:40:45.409Z,77.33
2022-10-20T08:42:46.386Z,76.86
2022-10-20T08:43:45.386Z,75.73
2022-10-20T08:44:45.381Z,74.92
2022-10-20T08:45:45.369Z,73.67
2022-10-20T08:46:45.344Z,73.36
2022-10-20T08:47:45.330Z,73.46
2022-10-20T08:48:45.326Z,73.22
2022-10-20T08:49:45.316Z,72.89
2022-10-20T08:50:45.281Z,71.26
2022-10-20T08:51:45.303Z,70.39
2022-10-20T08:52:45.272Z,67.66
2022-10-20T08:53:45.260Z,65.41
2022-10-20T08:54:45.256Z,62.57
2022-10-20T08:55:45.230Z,60.67
2022-10-20T08:56:45.235Z,58.80
2022-10-20T08:57:45.202Z,57.51
2022-10-20T08:58:45.190Z,56.26
2022-10-20T08:59:45.181Z,54.50
2022-10-20T09:00:45.171Z,52.52
2022-10-20T09:01:45.222Z,52.09
2022-10-20T09:02:45.140Z,51.20
2022-10-20T09:03:46.131Z,51.04
2022-10-20T09:04:45.114Z,50.12
2022-10-20T09:05:45.112Z,49.52
2022-10-20T09:06:45.124Z,48.90
2022-10-20T09:07:45.086Z,48.88
2022-10-20T09:08:45.105Z,48.48
2022-10-20T09:09:45.060Z,48.28
2022-10-20T09:10:45.044Z,47.96
2022-10-20T09:11:45.051Z,46.64
2022-10-20T09:12:45.013Z,47.16
2022-10-20T09:13:45.025Z,48.20
2022-10-20T09:14:44.997Z,48.82
2022-10-20T09:15:44.981Z,49.00
2022-10-20T09:16:59.297Z,49.02
2022-10-20T09:17:45.955Z,50.17
2022-10-20T09:18:44.936Z,50.87
2022-10-20T09:19:45.929Z,49.65
2022-10-20T09:20:44.904Z,49.12
2022-10-20T09:21:44.914Z,49.52
2022-10-20T09:22:44.892Z,49.12
2022-10-20T09:23:44.918Z,50.47
2022-10-20T09:24:44.857Z,50.70
2022-10-20T09:25:44.846Z,52.19
2022-10-20T09:26:58.248Z,50.70
2022-10-20T09:27:45.816Z,50.39
2022-10-20T09:29:08.656Z,50.70
2022-10-20T09:29:45.799Z,50.39
2022-10-20T09:30:44.778Z,50.47
2022-10-20T09:31:44.769Z,50.24
2022-10-20T09:32:47.328Z,49.65
2022-10-20T09:33:45.748Z,49.87
2022-10-20T09:34:44.729Z,50.07
2022-10-20T09:35:44.719Z,49.90
2022-10-20T09:36:44.725Z,50.09
2022-10-20T09:37:44.689Z,51.72
2022-10-20T09:38:44.678Z,52.24
2022-10-20T09:39:45.667Z,51.87
2022-10-20T09:40:44.650Z,52.92
2022-10-20T09:41:44.652Z,53.97
2022-10-20T09:42:44.624Z,54.83
2022-10-20T09:43:44.626Z,56.59
2022-10-20T09:44:45.601Z,57.22
2022-10-20T09:45:44.599Z,58.18
2022-10-20T09:46:44.591Z,59.24
2022-10-20T10:03:20.116Z,59.28
2022-10-20T10:04:20.087Z,58.80
2022-10-20T10:05:21.093Z,56.63
2022-10-20T10:06:20.071Z,56.65
2022-10-20T10:07:20.082Z,54.90
2022-10-20T10:08:20.056Z,51.82
2022-10-20T10:09:20.058Z,50.24
2022-10-20T10:10:20.054Z,50.37
2022-10-20T10:11:19.993Z,47.83
2022-10-20T10:12:19.992Z,46.20
2022-10-20T10:13:22.493Z,46.92
2022-10-20T10:14:19.960Z,44.67
2022-10-20T10:15:19.939Z,43.44
2022-10-20T10:16:19.939Z,43.10
2022-10-20T10:17:19.952Z,41.28
2022-10-20T10:18:19.912Z,42.17
2022-10-20T10:19:19.900Z,41.79
2022-10-20T10:20:19.882Z,41.79
2022-10-20T10:21:19.875Z,41.36
2022-10-20T10:22:19.881Z,40.66
2022-10-20T10:23:19.844Z,40.45
2022-10-20T10:24:19.841Z,39.64
2022-10-20T10:25:19.811Z,39.65
2022-10-20T10:26:19.816Z,40.17
2022-10-20T10:27:19.812Z,41.49
2022-10-20T10:28:19.814Z,41.41
2022-10-20T10:29:19.764Z,41.66
2022-10-20T10:30:19.776Z,42.41
2022-10-20T10:31:19.750Z,45.36
2022-10-20T10:32:19.744Z,45.72
2022-10-20T10:33:19.716Z,48.40
2022-10-20T10:34:19.717Z,50.32
2022-10-20T10:35:19.693Z,50.54
2022-10-20T10:36:19.685Z,50.97
2022-10-20T10:38:19.646Z,52.34
2022-10-20T10:39:19.647Z,52.67
2022-10-20T10:40:19.636Z,53.87
2022-10-20T10:41:19.608Z,53.85
2022-10-20T10:42:19.617Z,53.14
2022-10-20T10:43:19.579Z,52.12
2022-10-20T10:44:19.587Z,52.64
2022-10-20T10:45:19.574Z,52.94
2022-10-20T10:46:19.558Z,52.87
2022-10-20T10:47:19.556Z,52.12
2022-10-20T10:48:19.520Z,51.57
2022-10-20T10:49:19.514Z,50.10
2022-10-20T10:50:19.490Z,49.05
2022-10-20T10:51:19.491Z,48.75
2022-10-20T10:52:19.479Z,48.68
2022-10-20T10:53:19.450Z,48.78
2022-10-20T10:54:19.450Z,48.58
2022-10-20T10:55:43.817Z,47.75
2022-10-20T10:56:20.422Z,47.86
2022-10-20T10:57:19.411Z,48.28
2022-10-20T10:58:19.407Z,48.25
2022-10-20T10:59:19.382Z,48.78
2022-10-20T11:00:19.374Z,49.35
2022-10-20T11:01:19.440Z,46.44
2022-10-20T11:02:19.360Z,47.99
2022-10-20T11:03:19.343Z,45.95
2022-10-20T11:04:19.322Z,45.53
2022-10-20T11:05:19.297Z,45.33
2022-10-20T11:06:19.297Z,45.53
2022-10-20T11:07:19.299Z,44.37
2022-10-20T11:08:19.274Z,42.82
2022-10-20T11:09:19.537Z,42.19
2022-10-20T11:10:19.245Z,41.24
2022-10-20T11:11:19.234Z,40.84
2022-10-20T11:12:19.226Z,39.93
2022-10-20T11:13:22.965Z,39.62
2022-10-20T11:15:19.177Z,40.70
2022-10-20T11:16:19.167Z,40.21
2022-10-20T11:17:19.194Z,41.18
2022-10-20T11:18:19.158Z,42.85
2022-10-20T11:19:19.127Z,44.57
2022-10-20T11:20:19.110Z,44.52
2022-10-20T11:21:19.097Z,46.25
2022-10-20T11:22:19.100Z,48.76
2022-10-20T11:23:19.083Z,47.09
2022-10-20T11:24:19.097Z,45.87
2022-10-20T11:25:19.062Z,44.46
2022-10-20T11:26:19.058Z,45.83
2022-10-20T11:27:19.061Z,44.20
2022-10-20T11:28:19.031Z,44.27
2022-10-20T11:29:18.990Z,45.64
2022-10-20T11:30:18.991Z,45.23
2022-10-20T11:31:18.972Z,44.43
2022-10-20T11:32:18.982Z,44.93
2022-10-20T11:33:18.955Z,44.67
2022-10-20T11:34:18.942Z,44.97
2022-10-20T11:35:18.923Z,45.49
2022-10-20T11:36:18.913Z,44.40
2022-10-20T11:37:18.919Z,45.61
2022-10-20T11:38:18.893Z,45.63
2022-10-20T11:39:18.875Z,47.64
2022-10-20T11:40:18.864Z,48.28
2022-10-20T11:41:18.846Z,47.81
2022-10-20T11:42:18.858Z,47.91
2022-10-20T11:43:18.844Z,47.93
2022-10-20T11:44:18.816Z,48.63
2022-10-20T11:45:18.799Z,48.73
2022-10-20T11:46:18.796Z,49.03
2022-10-20T11:47:18.786Z,47.81
2022-10-20T11:48:19.777Z,47.59
2022-10-20T11:49:18.751Z,47.05
2022-10-20T11:50:18.757Z,46.15
2022-10-20T11:51:18.745Z,46.57
2022-10-20T11:52:18.716Z,47.53
2022-10-20T11:53:18.712Z,49.95
2022-10-20T11:54:18.711Z,48.25
2022-10-20T11:55:18.688Z,49.95
2022-10-20T11:56:18.694Z,48.80
2022-10-20T11:57:18.669Z,47.66
2022-10-20T11:58:19.654Z,46.41
2022-10-20T11:59:18.625Z,45.15
2022-10-20T12:01:18.632Z,42.74
2022-10-20T12:02:18.618Z,41.61
2022-10-20T12:03:18.582Z,40.78
2022-10-20T12:04:18.572Z,40.15
2022-10-20T12:05:18.556Z,39.03
2022-10-20T12:06:18.562Z,38.99
2022-10-20T12:07:18.577Z,38.78
2022-10-20T12:08:29.425Z,37.59
2022-10-20T12:09:19.597Z,37.30
2022-10-20T12:10:18.515Z,37.95
2022-10-20T12:11:18.483Z,36.47
2022-10-20T12:12:18.490Z,37.36
2022-10-20T12:13:18.455Z,35.99
2022-10-20T12:14:19.445Z,36.08
2022-10-20T12:15:19.785Z,36.67
2022-10-20T12:16:18.420Z,38.89
2022-10-20T12:17:18.430Z,38.14
2022-10-20T12:18:18.399Z,38.95
2022-10-20T12:19:18.397Z,39.09
2022-10-20T12:20:18.367Z,39.91
2022-10-20T12:21:18.380Z,40.29
2022-10-20T12:22:18.368Z,40.78
2022-10-20T12:23:18.347Z,40.50
2022-10-20T12:24:18.331Z,41.63
2022-10-20T12:25:18.325Z,41.99
2022-10-20T12:26:18.301Z,42.50
2022-10-20T12:27:18.289Z,43.06
2022-10-20T12:28:18.271Z,46.70
2022-10-20T12:29:18.279Z,47.07
2022-10-20T12:30:18.251Z,48.85
2022-10-20T12:31:18.251Z,51.15
2022-10-20T12:32:18.221Z,52.69
2022-10-20T12:33:18.246Z,52.44
2022-10-20T12:34:18.208Z,53.87
2022-10-20T12:35:18.206Z,55.00
2022-10-20T12:36:18.183Z,55.43
2022-10-20T12:37:18.214Z,56.02
2022-10-20T12:38:18.148Z,55.95
2022-10-20T12:39:18.143Z,57.46
2022-10-20T12:40:19.113Z,58.59
2022-10-20T12:41:18.134Z,57.51
2022-10-20T12:42:18.112Z,58.64
2022-10-20T12:43:18.095Z,59.25
2022-10-20T12:44:18.068Z,59.55
2022-10-20T12:45:19.073Z,59.22
2022-10-20T12:46:21.071Z,59.32
2022-10-20T12:47:18.041Z,57.39
2022-10-20T12:48:18.014Z,58.18
2022-10-20T12:49:18.017Z,57.48
2022-10-20T12:50:17.996Z,57.46
2022-10-20T12:51:17.980Z,58.43
2022-10-20T12:52:18.021Z,56.73
2022-10-20T12:53:17.974Z,56.00
2022-10-20T12:54:17.952Z,56.60
2022-10-20T12:55:17.987Z,56.48
2022-10-20T12:56:17.961Z,57.98
2022-10-20T12:57:17.911Z,57.37
2022-10-20T12:58:17.904Z,55.57
2022-10-20T12:59:17.886Z,55.94
2022-10-20T13:00:17.862Z,54.14
2022-10-20T13:01:17.959Z,54.22
2022-10-20T13:02:17.854Z,55.59
2022-10-20T13:03:18.446Z,54.37
2022-10-20T13:04:17.863Z,55.89
2022-10-20T13:05:17.802Z,55.22
2022-10-20T13:06:17.794Z,54.97
2022-10-20T13:07:17.792Z,56.20
2022-10-20T13:08:17.762Z,56.00
2022-10-20T13:09:17.753Z,56.63
2022-10-20T13:10:17.828Z,57.53
2022-10-20T13:11:18.738Z,56.43
2022-10-20T13:12:17.753Z,57.13
2022-10-20T13:13:17.716Z,56.76
2022-10-20T13:14:17.685Z,57.15
2022-10-20T13:15:17.703Z,57.96
2022-10-20T13:16:18.675Z,58.36
2022-10-20T13:17:17.697Z,58.86
2022-10-20T13:18:17.654Z,58.86
2022-10-20T13:19:17.632Z,59.16
2022-10-20T13:20:17.607Z,59.16
2022-10-20T13:21:18.596Z,58.16
2022-10-20T13:22:17.599Z,57.35
2022-10-20T13:23:17.594Z,58.66
2022-10-20T13:24:17.549Z,59.77
2022-10-20T13:25:17.548Z,58.18
2022-10-20T13:26:18.538Z,58.69
2022-10-20T13:27:17.540Z,58.56
2022-10-20T13:28:17.510Z,58.46
2022-10-20T13:29:17.488Z,59.59
2022-10-20T13:30:17.481Z,57.89
2022-10-20T13:31:17.471Z,60.60
2022-10-20T13:32:17.470Z,61.80
2022-10-20T13:33:33.881Z,61.10
2022-10-20T13:34:18.430Z,58.79
2022-10-20T13:35:17.422Z,57.84
2022-10-20T13:36:18.392Z,59.75